Bishopton, United Kingdom
Current Conditions -  °F | °C
As of 4:20 PM on Wednesday 26 Nov 2014 (Local Time) from EGPF Reporting Station
Overcast Overcast  
Wind Chill: 41°   Ceiling: 3100
Heat Index: 41°   Visibility: 4mi
Dew Point: 41°   Wind: 2mph
Humidity: 100%   Direction: 300°WNW
Pressure: 29.88"   Gusts: NA
Location:  55.9°N, 4.5°W
Report Text: EGPF 261620Z AUTO 30002KT 6000 OVC031 05/05 Q1012
Loading
Personal Weather Stations






























Interactive Weather Map New forecast layout! Learn more

10-Day Weather Forecast

Advertisements
Track Severe Weather on mobile